sensor_id;sensor_type;location;lat;lon;timestamp;pressure;altitude;pressure_sealevel;temperature;humidity
58686;BME280;44465;53.206;-6.106;2023-04-06T00:00:52;101218.94;;;19.99;51.16
58686;BME280;44465;53.206;-6.106;2023-04-06T00:03:18;101184.22;;;19.77;51.05
58686;BME280;44465;53.206;-6.106;2023-04-06T00:05:44;101162.59;;;19.63;51.21
58686;BME280;44465;53.206;-6.106;2023-04-06T00:08:10;101266.84;;;20.25;51.12
58686;BME280;44465;53.206;-6.106;2023-04-06T00:10:35;101236.50;;;20.05;51.25
58686;BME280;44465;53.206;-6.106;2023-04-06T00:13:01;101198.34;;;19.81;51.13
58686;BME280;44465;53.206;-6.106;2023-04-06T00:15:27;101270.44;;;20.24;51.06
58686;BME280;44465;53.206;-6.106;2023-04-06T00:17:52;101239.84;;;20.10;51.09
58686;BME280;44465;53.206;-6.106;2023-04-06T00:20:18;101241.50;;;20.13;51.23
58686;BME280;44465;53.206;-6.106;2023-04-06T00:22:44;101236.44;;;20.07;51.49
58686;BME280;44465;53.206;-6.106;2023-04-06T00:25:10;101191.91;;;19.85;51.19
58686;BME280;44465;53.206;-6.106;2023-04-06T00:27:37;101254.41;;;20.24;51.30
58686;BME280;44465;53.206;-6.106;2023-04-06T00:30:04;101171.00;;;19.74;51.18
58686;BME280;44465;53.206;-6.106;2023-04-06T00:32:30;101211.94;;;19.97;51.18
58686;BME280;44465;53.206;-6.106;2023-04-06T00:34:56;101248.16;;;20.23;51.14
58686;BME280;44465;53.206;-6.106;2023-04-06T00:37:22;101203.63;;;20.03;50.88
58686;BME280;44465;53.206;-6.106;2023-04-06T00:39:47;101205.50;;;20.01;50.82
58686;BME280;44465;53.206;-6.106;2023-04-06T00:42:13;101203.81;;;19.98;51.02
58686;BME280;44465;53.206;-6.106;2023-04-06T00:44:40;101175.84;;;19.87;51.01
58686;BME280;44465;53.206;-6.106;2023-04-06T00:47:06;101230.41;;;20.22;50.99
58686;BME280;44465;53.206;-6.106;2023-04-06T00:49:32;101168.84;;;19.82;51.28
58686;BME280;44465;53.206;-6.106;2023-04-06T00:51:58;101212.16;;;20.11;51.30
58686;BME280;44465;53.206;-6.106;2023-04-06T00:54:24;101219.84;;;20.19;50.84
58686;BME280;44465;53.206;-6.106;2023-04-06T00:56:50;101194.66;;;20.04;51.14
58686;BME280;44465;53.206;-6.106;2023-04-06T00:59:16;101219.13;;;20.15;51.04
58686;BME280;44465;53.206;-6.106;2023-04-06T01:01:41;101237.03;;;20.13;51.21
58686;BME280;44465;53.206;-6.106;2023-04-06T01:04:22;101160.31;;;19.74;51.29
58686;BME280;44465;53.206;-6.106;2023-04-06T01:06:49;101142.78;;;19.67;50.95
58686;BME280;44465;53.206;-6.106;2023-04-06T01:09:16;101203.53;;;20.05;50.96
58686;BME280;44465;53.206;-6.106;2023-04-06T01:11:42;101188.72;;;19.97;50.68
58686;BME280;44465;53.206;-6.106;2023-04-06T01:14:11;101211.91;;;20.18;50.97
58686;BME280;44465;53.206;-6.106;2023-04-06T01:16:49;101179.25;;;19.90;50.94
58686;BME280;44465;53.206;-6.106;2023-04-06T01:19:18;101231.41;;;20.20;50.88
58686;BME280;44465;53.206;-6.106;2023-04-06T01:21:48;101237.69;;;20.19;50.78
58686;BME280;44465;53.206;-6.106;2023-04-06T01:24:35;101229.00;;;20.13;51.17
58686;BME280;44465;53.206;-6.106;2023-04-06T01:27:06;101226.75;;;20.04;50.72
58686;BME280;44465;53.206;-6.106;2023-04-06T01:29:55;101210.84;;;20.01;50.94
58686;BME280;44465;53.206;-6.106;2023-04-06T01:32:34;101225.41;;;20.14;50.96
58686;BME280;44465;53.206;-6.106;2023-04-06T01:35:00;101216.06;;;20.04;50.96
58686;BME280;44465;53.206;-6.106;2023-04-06T01:37:26;101182.13;;;19.84;50.95
58686;BME280;44465;53.206;-6.106;2023-04-06T01:39:54;101190.72;;;19.92;51.28
58686;BME280;44465;53.206;-6.106;2023-04-06T01:42:34;101162.72;;;19.80;51.14
58686;BME280;44465;53.206;-6.106;2023-04-06T01:44:59;101125.31;;;19.60;51.01
58686;BME280;44465;53.206;-6.106;2023-04-06T01:47:26;101205.06;;;20.10;51.00
58686;BME280;44465;53.206;-6.106;2023-04-06T01:49:51;101135.72;;;19.66;50.96
58686;BME280;44465;53.206;-6.106;2023-04-06T01:52:17;101120.69;;;19.63;50.81
58686;BME280;44465;53.206;-6.106;2023-04-06T01:54:49;101177.31;;;19.94;50.85
58686;BME280;44465;53.206;-6.106;2023-04-06T01:57:35;101131.97;;;19.70;50.83
58686;BME280;44465;53.206;-6.106;2023-04-06T02:00:10;101185.00;;;20.02;50.75
58686;BME280;44465;53.206;-6.106;2023-04-06T02:02:39;101184.09;;;20.01;50.66
58686;BME280;44465;53.206;-6.106;2023-04-06T02:05:10;101198.91;;;20.08;50.67
58686;BME280;44465;53.206;-6.106;2023-04-06T02:07:36;101171.06;;;19.93;50.87
58686;BME280;44465;53.206;-6.106;2023-04-06T02:10:03;101207.63;;;20.13;50.96
58686;BME280;44465;53.206;-6.106;2023-04-06T02:12:35;101137.19;;;19.73;51.13
58686;BME280;44465;53.206;-6.106;2023-04-06T02:15:01;101104.34;;;19.50;50.86
58686;BME280;44465;53.206;-6.106;2023-04-06T02:17:26;101208.56;;;20.12;50.99
58686;BME280;44465;53.206;-6.106;2023-04-06T02:19:52;101196.41;;;20.05;51.22
58686;BME280;44465;53.206;-6.106;2023-04-06T02:22:17;101109.28;;;19.60;51.38
58686;BME280;44465;53.206;-6.106;2023-04-06T02:24:43;101195.31;;;20.09;51.04
58686;BME280;44465;53.206;-6.106;2023-04-06T02:27:09;101200.59;;;20.11;51.07
58686;BME280;44465;53.206;-6.106;2023-04-06T02:29:35;101205.06;;;20.10;50.81
58686;BME280;44465;53.206;-6.106;2023-04-06T02:32:02;101146.59;;;19.82;50.80
58686;BME280;44465;53.206;-6.106;2023-04-06T02:34:30;101195.25;;;20.11;51.28
58686;BME280;44465;53.206;-6.106;2023-04-06T02:36:56;101167.41;;;19.96;51.00
58686;BME280;44465;53.206;-6.106;2023-04-06T02:39:21;101171.81;;;19.97;51.01
58686;BME280;44465;53.206;-6.106;2023-04-06T02:41:48;101189.91;;;20.11;50.80
58686;BME280;44465;53.206;-6.106;2023-04-06T02:44:18;101197.06;;;20.10;50.84
58686;BME280;44465;53.206;-6.106;2023-04-06T02:46:43;101159.81;;;19.87;50.99
58686;BME280;44465;53.206;-6.106;2023-04-06T02:49:09;101163.94;;;19.94;50.80
58686;BME280;44465;53.206;-6.106;2023-04-06T02:51:35;101168.47;;;19.92;50.96
58686;BME280;44465;53.206;-6.106;2023-04-06T02:54:23;101177.00;;;20.00;50.88
58686;BME280;44465;53.206;-6.106;2023-04-06T02:56:49;101196.25;;;20.08;50.82
58686;BME280;44465;53.206;-6.106;2023-04-06T02:59:15;101159.81;;;19.87;51.18
58686;BME280;44465;53.206;-6.106;2023-04-06T03:01:47;101185.19;;;19.97;50.86
58686;BME280;44465;53.206;-6.106;2023-04-06T03:04:12;101182.44;;;19.98;51.16
58686;BME280;44465;53.206;-6.106;2023-04-06T03:06:38;101182.38;;;20.00;51.05
58686;BME280;44465;53.206;-6.106;2023-04-06T03:09:14;101118.22;;;19.59;50.89
58686;BME280;44465;53.206;-6.106;2023-04-06T03:11:42;101199.88;;;20.07;50.96
58686;BME280;44465;53.206;-6.106;2023-04-06T03:14:07;101144.41;;;19.71;50.96
58686;BME280;44465;53.206;-6.106;2023-04-06T03:16:33;101143.59;;;19.69;50.38
58686;BME280;44465;53.206;-6.106;2023-04-06T03:19:00;101189.44;;;20.01;50.73
58686;BME280;44465;53.206;-6.106;2023-04-06T03:21:26;101133.59;;;19.74;50.63
58686;BME280;44465;53.206;-6.106;2023-04-06T03:23:52;101159.81;;;19.87;50.51
58686;BME280;44465;53.206;-6.106;2023-04-06T03:26:18;101116.66;;;19.55;50.72
58686;BME280;44465;53.206;-6.106;2023-04-06T03:28:44;101200.81;;;20.06;50.98
58686;BME280;44465;53.206;-6.106;2023-04-06T03:31:09;101137.47;;;19.67;50.79
58686;BME280;44465;53.206;-6.106;2023-04-06T03:33:58;101186.91;;;19.98;51.07
58686;BME280;44465;53.206;-6.106;2023-04-06T03:36:29;101168.78;;;19.84;51.19
58686;BME280;44465;53.206;-6.106;2023-04-06T03:38:56;101118.50;;;19.52;50.83
58686;BME280;44465;53.206;-6.106;2023-04-06T03:41:22;101183.59;;;19.93;50.76
58686;BME280;44465;53.206;-6.106;2023-04-06T03:43:59;101182.78;;;19.91;51.00
58686;BME280;44465;53.206;-6.106;2023-04-06T03:46:25;101168.13;;;19.79;50.80
58686;BME280;44465;53.206;-6.106;2023-04-06T03:48:53;101120.38;;;19.50;50.72
58686;BME280;44465;53.206;-6.106;2023-04-06T03:51:21;101200.28;;;19.98;50.93
58686;BME280;44465;53.206;-6.106;2023-04-06T03:53:47;101207.31;;;20.01;50.52
58686;BME280;44465;53.206;-6.106;2023-04-06T03:56:12;101210.84;;;20.01;50.72
58686;BME280;44465;53.206;-6.106;2023-04-06T03:58:38;101217.06;;;20.02;50.80
58686;BME280;44465;53.206;-6.106;2023-04-06T04:01:04;101214.41;;;20.02;50.87
58686;BME280;44465;53.206;-6.106;2023-04-06T04:03:29;101172.88;;;19.72;50.88
58686;BME280;44465;53.206;-6.106;2023-04-06T04:05:55;101153.09;;;19.56;50.77
58686;BME280;44465;53.206;-6.106;2023-04-06T04:08:21;101225.13;;;20.00;50.79
58686;BME280;44465;53.206;-6.106;2023-04-06T04:10:47;101210.44;;;19.90;50.55
58686;BME280;44465;53.206;-6.106;2023-04-06T04:13:12;101215.56;;;19.94;51.01
58686;BME280;44465;53.206;-6.106;2023-04-06T04:15:39;101190.56;;;19.75;50.77
58686;BME280;44465;53.206;-6.106;2023-04-06T04:18:05;101187.16;;;19.71;50.67
58686;BME280;44465;53.206;-6.106;2023-04-06T04:20:31;101192.63;;;19.68;50.97
58686;BME280;44465;53.206;-6.106;2023-04-06T04:22:57;101194.25;;;19.72;51.10
58686;BME280;44465;53.206;-6.106;2023-04-06T04:25:23;101182.22;;;19.62;50.63
58686;BME280;44465;53.206;-6.106;2023-04-06T04:27:48;101154.16;;;19.51;50.85
58686;BME280;44465;53.206;-6.106;2023-04-06T04:30:15;101206.28;;;19.82;50.65
58686;BME280;44465;53.206;-6.106;2023-04-06T04:32:41;101188.97;;;19.71;50.63
58686;BME280;44465;53.206;-6.106;2023-04-06T04:35:08;101193.44;;;19.70;50.73
58686;BME280;44465;53.206;-6.106;2023-04-06T04:37:38;101202.66;;;19.83;50.99
58686;BME280;44465;53.206;-6.106;2023-04-06T04:40:04;101207.13;;;19.83;50.51
58686;BME280;44465;53.206;-6.106;2023-04-06T04:42:37;101196.72;;;19.77;50.72
58686;BME280;44465;53.206;-6.106;2023-04-06T04:45:05;101188.19;;;19.68;50.64
58686;BME280;44465;53.206;-6.106;2023-04-06T04:47:38;101228.13;;;19.92;50.87
58686;BME280;44465;53.206;-6.106;2023-04-06T04:50:05;101204.53;;;19.81;50.62
58686;BME280;44465;53.206;-6.106;2023-04-06T04:52:31;101232.34;;;19.98;50.72
58686;BME280;44465;53.206;-6.106;2023-04-06T04:55:11;101236.00;;;19.97;50.78
58686;BME280;44465;53.206;-6.106;2023-04-06T04:57:36;101242.31;;;19.94;51.01
58686;BME280;44465;53.206;-6.106;2023-04-06T05:00:04;101204.81;;;19.75;50.59
58686;BME280;44465;53.206;-6.106;2023-04-06T05:02:31;101222.31;;;19.82;50.86
58686;BME280;44465;53.206;-6.106;2023-04-06T05:05:10;101245.06;;;19.93;50.65
58686;BME280;44465;53.206;-6.106;2023-04-06T05:07:37;101243.31;;;19.92;50.90
58686;BME280;44465;53.206;-6.106;2023-04-06T05:10:05;101242.50;;;19.90;50.98
58686;BME280;44465;53.206;-6.106;2023-04-06T05:12:37;101246.94;;;19.91;50.66
58686;BME280;44465;53.206;-6.106;2023-04-06T05:15:06;101235.59;;;19.84;51.00
58686;BME280;44465;53.206;-6.106;2023-04-06T05:17:32;101209.59;;;19.67;50.98
58686;BME280;44465;53.206;-6.106;2023-04-06T05:19:58;101201.97;;;19.58;50.79
58686;BME280;44465;53.206;-6.106;2023-04-06T05:22:25;101173.38;;;19.39;50.48
58686;BME280;44465;53.206;-6.106;2023-04-06T05:25:02;101259.34;;;19.92;50.55
58686;BME280;44465;53.206;-6.106;2023-04-06T05:27:29;101210.88;;;19.58;50.55
58686;BME280;44465;53.206;-6.106;2023-04-06T05:29:55;101175.06;;;19.42;50.81
58686;BME280;44465;53.206;-6.106;2023-04-06T05:32:22;101237.84;;;19.73;50.66
58686;BME280;44465;53.206;-6.106;2023-04-06T05:34:50;101277.94;;;19.95;50.58
58686;BME280;44465;53.206;-6.106;2023-04-06T05:37:15;101206.78;;;19.49;50.89
58686;BME280;44465;53.206;-6.106;2023-04-06T05:39:41;101205.16;;;19.45;50.92
58686;BME280;44465;53.206;-6.106;2023-04-06T05:42:07;101279.94;;;19.90;50.49
58686;BME280;44465;53.206;-6.106;2023-04-06T05:44:45;101190.41;;;19.36;50.69
58686;BME280;44465;53.206;-6.106;2023-04-06T05:47:14;101247.81;;;19.69;50.87
58686;BME280;44465;53.206;-6.106;2023-04-06T05:49:43;101235.66;;;19.62;50.48
58686;BME280;44465;53.206;-6.106;2023-04-06T05:52:15;101296.78;;;19.92;50.60
58686;BME280;44465;53.206;-6.106;2023-04-06T05:54:44;101270.66;;;19.76;50.57
58686;BME280;44465;53.206;-6.106;2023-04-06T05:57:09;101294.03;;;19.93;50.45
58686;BME280;44465;53.206;-6.106;2023-04-06T05:59:35;101268.75;;;19.80;50.71
58686;BME280;44465;53.206;-6.106;2023-04-06T06:02:00;101259.13;;;19.76;50.52
58686;BME280;44465;53.206;-6.106;2023-04-06T06:04:30;101251.56;;;19.65;50.71
58686;BME280;44465;53.206;-6.106;2023-04-06T06:06:56;101223.81;;;19.47;50.90
58686;BME280;44465;53.206;-6.106;2023-04-06T06:09:31;101263.22;;;19.62;50.61
58686;BME280;44465;53.206;-6.106;2023-04-06T06:12:15;101289.44;;;19.75;50.49
58686;BME280;44465;53.206;-6.106;2023-04-06T06:14:41;101260.72;;;19.59;50.68
58686;BME280;44465;53.206;-6.106;2023-04-06T06:17:06;101305.72;;;19.91;50.55
58686;BME280;44465;53.206;-6.106;2023-04-06T06:19:33;101297.38;;;19.76;50.54
58686;BME280;44465;53.206;-6.106;2023-04-06T06:22:01;101273.88;;;19.64;50.75
58686;BME280;44465;53.206;-6.106;2023-04-06T06:24:28;101278.28;;;19.65;50.76
58686;BME280;44465;53.206;-6.106;2023-04-06T06:26:54;101240.03;;;19.42;50.75
58686;BME280;44465;53.206;-6.106;2023-04-06T06:29:24;101264.63;;;19.50;50.51
58686;BME280;44465;53.206;-6.106;2023-04-06T06:31:50;101302.72;;;19.76;50.55
58686;BME280;44465;53.206;-6.106;2023-04-06T06:34:16;101246.22;;;19.43;50.56
58686;BME280;44465;53.206;-6.106;2023-04-06T06:36:42;101285.34;;;19.66;50.34
58686;BME280;44465;53.206;-6.106;2023-04-06T06:39:10;101278.53;;;19.59;50.64
58686;BME280;44465;53.206;-6.106;2023-04-06T06:41:36;101258.66;;;19.44;50.49
58686;BME280;44465;53.206;-6.106;2023-04-06T06:44:03;101252.59;;;19.40;50.54
58686;BME280;44465;53.206;-6.106;2023-04-06T06:46:28;101260.59;;;19.40;50.72
58686;BME280;44465;53.206;-6.106;2023-04-06T06:48:54;101269.34;;;19.44;50.28
58686;BME280;44465;53.206;-6.106;2023-04-06T06:51:20;101252.97;;;19.31;50.61
58686;BME280;44465;53.206;-6.106;2023-04-06T06:53:45;101328.53;;;19.77;50.62
58686;BME280;44465;53.206;-6.106;2023-04-06T06:56:11;101298.22;;;19.56;50.57
58686;BME280;44465;53.206;-6.106;2023-04-06T06:58:37;101303.38;;;19.61;50.53
58686;BME280;44465;53.206;-6.106;2023-04-06T07:01:03;101330.25;;;19.78;50.61
58686;BME280;44465;53.206;-6.106;2023-04-06T07:03:30;101302.56;;;19.59;50.95
58686;BME280;44465;53.206;-6.106;2023-04-06T07:05:56;101336.53;;;19.77;50.64
58686;BME280;44465;53.206;-6.106;2023-04-06T07:08:24;101284.31;;;19.48;50.55
58686;BME280;44465;53.206;-6.106;2023-04-06T07:10:50;101348.63;;;19.88;50.69
58686;BME280;44465;53.206;-6.106;2023-04-06T07:13:18;101349.50;;;19.88;50.22
58686;BME280;44465;53.206;-6.106;2023-04-06T07:15:49;101347.03;;;19.82;50.35
58686;BME280;44465;53.206;-6.106;2023-04-06T07:18:16;101340.13;;;19.76;50.49
58686;BME280;44465;53.206;-6.106;2023-04-06T07:20:41;101367.41;;;19.86;50.66
58686;BME280;44465;53.206;-6.106;2023-04-06T07:23:07;101356.00;;;19.81;50.79
58686;BME280;44465;53.206;-6.106;2023-04-06T07:25:32;101354.31;;;19.78;50.49
58686;BME280;44465;53.206;-6.106;2023-04-06T07:27:58;101370.88;;;19.88;50.42
58686;BME280;44465;53.206;-6.106;2023-04-06T07:30:24;101343.88;;;19.72;50.80
58686;BME280;44465;53.206;-6.106;2023-04-06T07:36:01;101351.22;;;19.67;50.58
58686;BME280;44465;53.206;-6.106;2023-04-06T07:38:26;101375.47;;;19.84;50.42
58686;BME280;44465;53.206;-6.106;2023-04-06T07:40:52;101358.06;;;19.74;50.70
58686;BME280;44465;53.206;-6.106;2023-04-06T07:43:18;101368.50;;;19.80;50.59
58686;BME280;44465;53.206;-6.106;2023-04-06T07:45:43;101380.84;;;19.83;50.72
58686;BME280;44465;53.206;-6.106;2023-04-06T07:48:10;101370.34;;;19.78;50.60
58686;BME280;44465;53.206;-6.106;2023-04-06T07:50:36;101370.41;;;19.77;50.58
58686;BME280;44465;53.206;-6.106;2023-04-06T07:53:02;101370.31;;;19.80;50.60
58686;BME280;44465;53.206;-6.106;2023-04-06T07:55:29;101374.56;;;19.84;50.38
58686;BME280;44465;53.206;-6.106;2023-04-06T07:57:54;101366.06;;;19.74;50.63
58686;BME280;44465;53.206;-6.106;2023-04-06T08:00:20;101382.59;;;19.86;50.46
58686;BME280;44465;53.206;-6.106;2023-04-06T08:02:46;101366.13;;;19.73;50.58
58686;BME280;44465;53.206;-6.106;2023-04-06T08:05:12;101359.91;;;19.72;50.57
58686;BME280;44465;53.206;-6.106;2023-04-06T08:07:37;101373.09;;;19.77;50.52
58686;BME280;44465;53.206;-6.106;2023-04-06T08:10:03;101377.44;;;19.79;50.53
58686;BME280;44465;53.206;-6.106;2023-04-06T08:12:29;101381.78;;;19.82;50.38
58686;BME280;44465;53.206;-6.106;2023-04-06T08:14:55;101319.34;;;19.40;50.39
58686;BME280;44465;53.206;-6.106;2023-04-06T08:17:40;101397.81;;;19.82;50.61
58686;BME280;44465;53.206;-6.106;2023-04-06T08:20:06;101333.56;;;19.41;50.35
58686;BME280;44465;53.206;-6.106;2023-04-06T08:22:31;101403.97;;;19.86;50.58
58686;BME280;44465;53.206;-6.106;2023-04-06T08:24:57;101384.81;;;19.73;50.35
58686;BME280;44465;53.206;-6.106;2023-04-06T08:27:22;101338.59;;;19.48;50.66
58686;BME280;44465;53.206;-6.106;2023-04-06T08:29:49;101358.66;;;19.59;50.18
58686;BME280;44465;53.206;-6.106;2023-04-06T08:32:14;101347.53;;;19.47;50.37
58686;BME280;44465;53.206;-6.106;2023-04-06T08:34:40;101346.72;;;19.45;50.25
58686;BME280;44465;53.206;-6.106;2023-04-06T08:37:06;101311.06;;;19.24;50.37
58686;BME280;44465;53.206;-6.106;2023-04-06T08:39:31;101404.16;;;19.79;50.47
58686;BME280;44465;53.206;-6.106;2023-04-06T08:41:59;101387.69;;;19.68;50.59
58686;BME280;44465;53.206;-6.106;2023-04-06T08:44:31;101364.28;;;19.52;50.19
58686;BME280;44465;53.206;-6.106;2023-04-06T08:46:59;101390.50;;;19.65;50.51
58686;BME280;44465;53.206;-6.106;2023-04-06T08:49:24;101365.94;;;19.55;50.44
58686;BME280;44465;53.206;-6.106;2023-04-06T08:51:51;101425.34;;;19.86;50.44
58686;BME280;44465;53.206;-6.106;2023-04-06T08:54:16;101414.09;;;19.76;50.33
58686;BME280;44465;53.206;-6.106;2023-04-06T08:56:42;101429.88;;;19.82;50.56
58686;BME280;44465;53.206;-6.106;2023-04-06T08:59:09;101336.66;;;19.30;50.55
58686;BME280;44465;53.206;-6.106;2023-04-06T09:01:39;101422.75;;;19.82;50.67
58686;BME280;44465;53.206;-6.106;2023-04-06T09:04:07;101348.84;;;19.37;50.41
58686;BME280;44465;53.206;-6.106;2023-04-06T09:06:36;101341.00;;;19.32;50.52
58686;BME280;44465;53.206;-6.106;2023-04-06T09:09:02;101406.47;;;19.66;50.45
58686;BME280;44465;53.206;-6.106;2023-04-06T09:11:27;101445.81;;;19.85;50.54
58686;BME280;44465;53.206;-6.106;2023-04-06T09:13:55;101349.84;;;19.34;50.71
58686;BME280;44465;53.206;-6.106;2023-04-06T09:16:22;101363.13;;;19.36;50.27
58686;BME280;44465;53.206;-6.106;2023-04-06T09:18:49;101386.69;;;19.48;50.41
58686;BME280;44465;53.206;-6.106;2023-04-06T09:21:18;101418.94;;;19.66;50.37
58686;BME280;44465;53.206;-6.106;2023-04-06T09:23:44;101464.38;;;19.90;50.41
58686;BME280;44465;53.206;-6.106;2023-04-06T09:26:12;101407.00;;;19.52;50.12
58686;BME280;44465;53.206;-6.106;2023-04-06T09:31:08;101477.69;;;19.91;50.42
58686;BME280;44465;53.206;-6.106;2023-04-06T09:33:45;101386.38;;;19.34;50.35
58686;BME280;44465;53.206;-6.106;2023-04-06T09:36:11;101409.72;;;19.51;50.38
58686;BME280;44465;53.206;-6.106;2023-04-06T09:38:56;101384.75;;;19.30;50.38
58686;BME280;44465;53.206;-6.106;2023-04-06T09:41:29;101411.78;;;19.44;50.37
58686;BME280;44465;53.206;-6.106;2023-04-06T09:44:09;101443.06;;;19.64;50.47
58686;BME280;44465;53.206;-6.106;2023-04-06T09:46:41;101464.22;;;19.71;50.26
58686;BME280;44465;53.206;-6.106;2023-04-06T09:49:08;101490.09;;;19.92;50.53
58686;BME280;44465;53.206;-6.106;2023-04-06T09:51:39;101482.38;;;19.84;50.15
58686;BME280;44465;53.206;-6.106;2023-04-06T09:54:06;101454.63;;;19.65;50.46
58686;BME280;44465;53.206;-6.106;2023-04-06T09:56:56;101504.34;;;19.93;50.10
58686;BME280;44465;53.206;-6.106;2023-04-06T09:59:37;101506.09;;;19.94;50.27
58686;BME280;44465;53.206;-6.106;2023-04-06T10:02:05;101496.22;;;19.96;50.36
58686;BME280;44465;53.206;-6.106;2023-04-06T10:04:43;101494.69;;;19.89;50.42
58686;BME280;44465;53.206;-6.106;2023-04-06T10:07:15;101489.50;;;19.86;50.33
58686;BME280;44465;53.206;-6.106;2023-04-06T10:09:44;101469.56;;;19.71;50.32
58686;BME280;44465;53.206;-6.106;2023-04-06T10:12:12;101510.50;;;19.95;50.28
58686;BME280;44465;53.206;-6.106;2023-04-06T10:14:38;101469.59;;;19.69;50.42
58686;BME280;44465;53.206;-6.106;2023-04-06T10:17:05;101517.72;;;19.93;50.39
58686;BME280;44465;53.206;-6.106;2023-04-06T10:19:44;101496.69;;;19.82;50.44
58686;BME280;44465;53.206;-6.106;2023-04-06T10:22:20;101513.41;;;19.89;50.36
58686;BME280;44465;53.206;-6.106;2023-04-06T10:24:48;101505.59;;;19.82;50.44
58686;BME280;44465;53.206;-6.106;2023-04-06T10:27:13;101524.00;;;19.92;50.43
58686;BME280;44465;53.206;-6.106;2023-04-06T10:29:46;101510.13;;;19.80;50.49
58686;BME280;44465;53.206;-6.106;2023-04-06T10:32:14;101500.56;;;19.75;50.17
58686;BME280;44465;53.206;-6.106;2023-04-06T10:34:39;101513.56;;;19.84;50.07
58686;BME280;44465;53.206;-6.106;2023-04-06T10:37:15;101521.25;;;19.93;50.30
58686;BME280;44465;53.206;-6.106;2023-04-06T10:40:17;101478.78;;;19.62;50.27
58686;BME280;44465;53.206;-6.106;2023-04-06T10:42:43;101530.09;;;19.95;50.45
58686;BME280;44465;53.206;-6.106;2023-04-06T10:45:19;101536.25;;;19.97;50.33
58686;BME280;44465;53.206;-6.106;2023-04-06T10:47:45;101516.31;;;19.82;50.18
58686;BME280;44465;53.206;-6.106;2023-04-06T10:50:14;101544.19;;;19.99;50.17
58686;BME280;44465;53.206;-6.106;2023-04-06T10:52:41;101515.41;;;19.82;50.11
58686;BME280;44465;53.206;-6.106;2023-04-06T10:55:08;101521.72;;;19.81;50.22
58686;BME280;44465;53.206;-6.106;2023-04-06T10:57:35;101531.34;;;19.85;49.96
58686;BME280;44465;53.206;-6.106;2023-04-06T11:00:04;101549.53;;;19.99;50.28
58686;BME280;44465;53.206;-6.106;2023-04-06T11:02:30;101504.22;;;19.72;50.44
58686;BME280;44465;53.206;-6.106;2023-04-06T11:04:57;101551.34;;;19.98;50.29
58686;BME280;44465;53.206;-6.106;2023-04-06T11:07:24;101553.97;;;20.00;50.30
58686;BME280;44465;53.206;-6.106;2023-04-06T11:09:50;101531.34;;;19.87;50.25
58686;BME280;44465;53.206;-6.106;2023-04-06T11:12:23;101556.63;;;20.00;50.01
58686;BME280;44465;53.206;-6.106;2023-04-06T11:15:00;101563.78;;;19.99;50.16
58686;BME280;44465;53.206;-6.106;2023-04-06T11:17:31;101559.59;;;19.92;50.28
58686;BME280;44465;53.206;-6.106;2023-04-06T11:19:57;101556.81;;;19.95;50.21
58686;BME280;44465;53.206;-6.106;2023-04-06T11:22:24;101527.22;;;19.76;50.09
58686;BME280;44465;53.206;-6.106;2023-04-06T11:24:49;101543.81;;;19.86;50.13
58686;BME280;44465;53.206;-6.106;2023-04-06T11:27:15;101568.25;;;19.99;50.20
58686;BME280;44465;53.206;-6.106;2023-04-06T11:29:42;101505.56;;;19.60;49.80
58686;BME280;44465;53.206;-6.106;2023-04-06T11:32:07;101513.34;;;19.66;49.83
58686;BME280;44465;53.206;-6.106;2023-04-06T11:34:36;101469.84;;;19.39;50.05
58686;BME280;44465;53.206;-6.106;2023-04-06T11:37:04;101496.00;;;19.55;50.21
58686;BME280;44465;53.206;-6.106;2023-04-06T11:39:38;101496.09;;;19.51;49.99
58686;BME280;44465;53.206;-6.106;2023-04-06T11:42:03;101573.59;;;19.99;50.02
58686;BME280;44465;53.206;-6.106;2023-04-06T11:44:32;101574.41;;;20.01;50.19
58686;BME280;44465;53.206;-6.106;2023-04-06T11:46:59;101518.50;;;19.71;50.33
58686;BME280;44465;53.206;-6.106;2023-04-06T11:49:29;101519.63;;;19.65;49.98
58686;BME280;44465;53.206;-6.106;2023-04-06T11:51:56;101509.94;;;19.63;50.09
58686;BME280;44465;53.206;-6.106;2023-04-06T11:54:34;101583.25;;;20.03;50.14
58686;BME280;44465;53.206;-6.106;2023-04-06T11:57:04;101574.31;;;20.04;49.92
58686;BME280;44465;53.206;-6.106;2023-04-06T11:59:31;101555.25;;;19.90;49.84
58686;BME280;44465;53.206;-6.106;2023-04-06T12:01:57;101512.88;;;19.55;50.20
58686;BME280;44465;53.206;-6.106;2023-04-06T12:04:23;101587.69;;;20.04;49.65
58686;BME280;44465;53.206;-6.106;2023-04-06T12:06:49;101532.81;;;19.70;50.15
58686;BME280;44465;53.206;-6.106;2023-04-06T12:09:16;101572.69;;;20.00;49.92
58686;BME280;44465;53.206;-6.106;2023-04-06T12:11:42;101590.56;;;19.98;50.00
58686;BME280;44465;53.206;-6.106;2023-04-06T12:14:08;101564.19;;;19.89;50.13
58686;BME280;44465;53.206;-6.106;2023-04-06T12:16:34;101592.13;;;20.04;50.23
58686;BME280;44465;53.206;-6.106;2023-04-06T12:19:00;101586.94;;;20.01;49.95
58686;BME280;44465;53.206;-6.106;2023-04-06T12:21:30;101549.41;;;19.78;50.03
58686;BME280;44465;53.206;-6.106;2023-04-06T12:23:59;101573.69;;;19.97;49.82
58686;BME280;44465;53.206;-6.106;2023-04-06T12:26:25;101489.88;;;19.51;50.03
58686;BME280;44465;53.206;-6.106;2023-04-06T12:28:51;101550.13;;;19.83;50.16
58686;BME280;44465;53.206;-6.106;2023-04-06T12:31:18;101552.81;;;19.82;49.94
58686;BME280;44465;53.206;-6.106;2023-04-06T12:33:46;101532.69;;;19.73;49.77
58686;BME280;44465;53.206;-6.106;2023-04-06T12:36:16;101542.03;;;19.85;50.01
58686;BME280;44465;53.206;-6.106;2023-04-06T12:38:44;101534.19;;;19.80;50.01
58686;BME280;44465;53.206;-6.106;2023-04-06T12:44:14;101575.13;;;20.06;49.75
58686;BME280;44465;53.206;-6.106;2023-04-06T12:46:40;101572.69;;;20.00;49.95
58686;BME280;44465;53.206;-6.106;2023-04-06T12:49:05;101574.41;;;20.01;50.09
58686;BME280;44465;53.206;-6.106;2023-04-06T12:51:31;101591.03;;;20.09;49.94
58686;BME280;44465;53.206;-6.106;2023-04-06T12:53:57;101553.50;;;19.89;49.68